createdAt,value
2022-11-04T00:02:29.161Z,19.17
2022-11-04T00:05:00.137Z,15.83
2022-11-04T00:07:58.285Z,11.33
2022-11-04T00:10:45.894Z,14.40
2022-11-04T00:13:19.644Z,15.40
2022-11-04T00:16:05.712Z,14.83
2022-11-04T00:18:35.824Z,18.17
2022-11-04T00:21:21.859Z,18.30
2022-11-04T00:24:53.161Z,16.43
2022-11-04T00:27:45.278Z,16.97
2022-11-04T00:30:12.836Z,17.70
2022-11-04T00:37:17.846Z,15.87
2022-11-04T00:48:49.895Z,14.53
2022-11-04T00:52:09.259Z,16.53
2022-11-04T00:55:37.167Z,15.50
2022-11-04T00:58:33.101Z,15.13
2022-11-04T01:02:20.762Z,13.97
2022-11-04T01:08:28.831Z,20.00
2022-11-04T01:11:20.343Z,16.27
2022-11-04T01:16:57.655Z,25.60
2022-11-04T01:19:36.487Z,16.17
2022-11-04T01:22:09.066Z,17.03
2022-11-04T01:24:41.985Z,20.20
2022-11-04T01:33:15.898Z,18.53
2022-11-04T01:38:48.397Z,21.13
2022-11-04T01:41:40.592Z,26.37
2022-11-04T01:44:59.915Z,18.43
2022-11-04T01:48:08.607Z,20.03
2022-11-04T01:50:45.015Z,19.50
2022-11-04T01:53:42.364Z,12.80
2022-11-04T01:56:23.543Z,12.77
2022-11-04T01:59:20.334Z,25.17
2022-11-04T02:04:58.111Z,23.63
2022-11-04T02:08:18.284Z,27.40
2022-11-04T02:14:58.475Z,23.53
2022-11-04T02:18:16.440Z,20.07
2022-11-04T02:21:25.437Z,24.60
2022-11-04T02:24:33.577Z,21.57
2022-11-04T02:27:40.000Z,12.93
2022-11-04T02:30:20.221Z,20.83
2022-11-04T02:33:31.390Z,16.53
2022-11-04T02:36:52.997Z,19.17
2022-11-04T02:39:56.272Z,22.17
2022-11-04T02:42:37.723Z,20.97
2022-11-04T02:45:25.945Z,15.70
2022-11-04T02:48:49.306Z,17.13
2022-11-04T02:51:50.157Z,21.57
2022-11-04T02:54:41.641Z,18.80
2022-11-04T02:57:17.938Z,22.83
2022-11-04T03:00:04.039Z,28.37
2022-11-04T03:02:46.007Z,18.30
2022-11-04T03:05:31.290Z,25.50
2022-11-04T03:08:11.792Z,23.63
2022-11-04T03:11:20.141Z,17.73
2022-11-04T03:14:10.576Z,20.77
2022-11-04T03:17:09.380Z,19.10
2022-11-04T03:19:59.700Z,19.10
2022-11-04T03:22:36.853Z,23.67
2022-11-04T03:25:14.349Z,24.77
2022-11-04T03:28:52.674Z,19.63
2022-11-04T03:31:44.150Z,28.00
2022-11-04T03:34:22.958Z,24.43
2022-11-04T03:36:50.679Z,23.70
2022-11-04T03:43:25.685Z,19.43
2022-11-04T03:45:56.140Z,15.10
2022-11-04T03:48:27.109Z,16.30
2022-11-04T03:50:55.491Z,18.20
2022-11-04T03:53:33.699Z,20.37
2022-11-04T03:57:20.393Z,21.47
2022-11-04T04:05:23.202Z,20.57
2022-11-04T04:08:20.345Z,19.30
2022-11-04T04:15:48.086Z,20.07
2022-11-04T04:19:12.799Z,26.90
2022-11-04T04:22:15.781Z,24.17
2022-11-04T04:25:18.565Z,16.00
2022-11-04T04:27:51.827Z,18.53
2022-11-04T04:30:22.678Z,23.43
2022-11-04T04:33:25.763Z,18.60
2022-11-04T04:36:00.027Z,21.70
2022-11-04T04:38:51.970Z,23.87
2022-11-04T04:41:50.532Z,18.90
2022-11-04T04:44:47.721Z,22.57
2022-11-04T04:47:51.741Z,18.90
2022-11-04T04:50:21.738Z,19.23
2022-11-04T04:52:53.441Z,19.60
2022-11-04T04:55:23.277Z,17.70
2022-11-04T04:57:50.433Z,19.90
2022-11-04T05:00:21.035Z,19.93
2022-11-04T05:02:49.313Z,23.83
2022-11-04T05:05:17.822Z,21.03
2022-11-04T05:07:45.698Z,20.57
2022-11-04T05:10:16.163Z,21.83
2022-11-04T05:13:02.853Z,22.67
2022-11-04T05:15:33.544Z,19.47
2022-11-04T05:18:03.598Z,28.87
2022-11-04T05:20:34.457Z,26.83
2022-11-04T05:23:09.251Z,23.53
2022-11-04T05:25:36.283Z,22.17
2022-11-04T05:28:03.444Z,27.30
2022-11-04T05:30:30.451Z,26.17
2022-11-04T05:33:01.537Z,18.67
2022-11-04T05:35:32.667Z,15.10
2022-11-04T05:38:00.318Z,14.03
2022-11-04T05:40:27.519Z,20.70
2022-11-04T05:42:58.221Z,22.90
2022-11-04T05:45:29.582Z,25.30
2022-11-04T05:48:06.381Z,23.83
2022-11-04T05:50:56.980Z,16.13
2022-11-04T05:53:29.128Z,17.83
2022-11-04T05:56:04.794Z,18.07
2022-11-04T05:59:33.980Z,15.63
2022-11-04T06:01:42.994Z,22.37
2022-11-04T06:04:31.492Z,27.47
2022-11-04T06:07:01.707Z,19.10
2022-11-04T06:09:41.123Z,23.83
2022-11-04T06:15:19.786Z,17.90
2022-11-04T06:17:47.219Z,26.20
2022-11-04T06:20:55.187Z,23.03
2022-11-04T06:23:43.882Z,16.93
2022-11-04T06:26:32.067Z,20.40
2022-11-04T06:29:14.131Z,17.47
2022-11-04T06:31:41.386Z,20.03
2022-11-04T06:34:09.141Z,27.70
2022-11-04T06:36:36.789Z,17.43
2022-11-04T06:39:22.190Z,25.07
2022-11-04T06:42:26.711Z,23.57
2022-11-04T06:45:22.451Z,17.07
2022-11-04T06:47:52.709Z,18.30
2022-11-04T06:50:25.950Z,16.80
2022-11-04T06:52:56.118Z,25.67
2022-11-04T06:55:23.447Z,21.77
2022-11-04T06:57:51.199Z,19.77
2022-11-04T07:00:23.359Z,20.63
2022-11-04T07:02:50.404Z,26.27
2022-11-04T07:05:17.699Z,20.80
2022-11-04T07:07:44.975Z,24.17
2022-11-04T07:10:12.263Z,24.00
2022-11-04T07:12:39.659Z,33.73
2022-11-04T07:15:10.830Z,22.80
2022-11-04T07:17:38.172Z,26.47
2022-11-04T07:20:08.962Z,21.10
2022-11-04T07:22:35.942Z,26.40
2022-11-04T07:25:12.179Z,20.40
2022-11-04T07:27:39.597Z,20.30
2022-11-04T07:30:10.027Z,23.37
2022-11-04T07:32:37.014Z,21.20
2022-11-04T07:35:07.026Z,24.33
2022-11-04T07:37:34.089Z,27.80
2022-11-04T07:40:01.426Z,26.73
2022-11-04T07:42:28.401Z,28.23
2022-11-04T07:44:58.684Z,25.83
2022-11-04T07:47:25.786Z,24.70
2022-11-04T07:49:52.839Z,26.40
2022-11-04T07:52:19.912Z,30.07
2022-11-04T07:54:46.826Z,26.47
2022-11-04T07:57:14.006Z,27.67
2022-11-04T07:59:40.940Z,32.23
2022-11-04T08:02:10.242Z,25.73
2022-11-04T08:04:38.007Z,27.43
2022-11-04T08:07:07.623Z,32.63
2022-11-04T08:09:36.574Z,27.73
2022-11-04T08:12:06.266Z,29.57
2022-11-04T08:14:33.643Z,27.07
2022-11-04T08:17:00.594Z,25.43
2022-11-04T08:19:27.755Z,28.83
2022-11-04T08:21:54.914Z,25.37
2022-11-04T08:24:21.982Z,26.43
2022-11-04T08:26:49.526Z,36.37
2022-11-04T08:29:17.059Z,23.57
2022-11-04T08:31:44.210Z,32.27
2022-11-04T08:34:11.741Z,24.23
2022-11-04T08:36:42.968Z,28.60
2022-11-04T08:39:11.379Z,30.73
2022-11-04T08:41:43.028Z,30.57
2022-11-04T08:44:14.096Z,28.70
2022-11-04T08:46:46.783Z,27.90
2022-11-04T08:49:19.476Z,25.30
2022-11-04T08:52:00.435Z,24.80
2022-11-04T08:54:30.899Z,27.93
2022-11-04T08:56:58.899Z,25.43
2022-11-04T08:59:28.293Z,27.73
2022-11-04T09:01:55.677Z,25.23
2022-11-04T09:04:22.892Z,23.97
2022-11-04T09:06:52.319Z,21.90
2022-11-04T09:09:20.126Z,24.97
2022-11-04T09:11:47.807Z,27.00
2022-11-04T09:14:15.425Z,22.83
2022-11-04T09:16:43.064Z,25.53
2022-11-04T09:19:10.116Z,20.63
2022-11-04T09:21:37.462Z,24.53
2022-11-04T09:24:06.176Z,22.40
2022-11-04T09:26:33.816Z,17.40
2022-11-04T09:29:01.424Z,21.97
2022-11-04T09:31:31.329Z,15.70
2022-11-04T09:33:58.583Z,14.23
2022-11-04T09:36:26.401Z,16.40
2022-11-04T09:38:53.667Z,16.43
2022-11-04T09:41:58.338Z,18.97
2022-11-04T09:45:07.314Z,14.77
2022-11-04T09:47:35.163Z,16.43
2022-11-04T09:50:06.898Z,15.57
2022-11-04T09:52:48.218Z,15.50
2022-11-04T09:55:49.151Z,9.90
2022-11-04T09:58:16.786Z,12.10
2022-11-04T10:01:02.931Z,17.27
2022-11-04T10:05:04.841Z,13.63
2022-11-04T10:08:09.166Z,10.80
2022-11-04T10:11:01.581Z,15.60
2022-11-04T10:14:14.017Z,11.10
2022-11-04T10:17:09.359Z,13.77
2022-11-04T10:20:13.076Z,11.50
2022-11-04T10:23:13.053Z,12.27
2022-11-04T10:26:12.650Z,13.57
2022-11-04T10:29:06.995Z,16.67
2022-11-04T10:31:38.554Z,9.43
2022-11-04T10:34:34.404Z,12.60
2022-11-04T10:37:01.959Z,13.10
2022-11-04T10:39:39.922Z,9.87
2022-11-04T10:42:12.139Z,12.53
2022-11-04T10:44:43.264Z,10.97
2022-11-04T10:47:55.767Z,10.83
2022-11-04T10:50:41.332Z,10.63
2022-11-04T10:53:24.687Z,16.90
2022-11-04T10:56:13.835Z,14.07
2022-11-04T10:58:47.363Z,13.50
2022-11-04T11:01:35.489Z,11.57
2022-11-04T11:04:08.893Z,10.97
2022-11-04T11:06:37.094Z,13.17
2022-11-04T11:09:56.179Z,11.80
2022-11-04T11:12:50.466Z,11.90
2022-11-04T11:15:40.137Z,13.50
2022-11-04T11:18:15.838Z,12.17
2022-11-04T11:21:04.734Z,12.97
2022-11-04T11:23:51.143Z,9.70
2022-11-04T11:26:30.525Z,11.67
2022-11-04T11:29:04.043Z,11.13
2022-11-04T11:31:40.524Z,12.10
2022-11-04T11:34:32.648Z,12.80
2022-11-04T11:37:05.564Z,13.50
2022-11-04T11:39:36.575Z,10.67
2022-11-04T11:42:12.822Z,10.90
2022-11-04T11:44:54.638Z,10.20
2022-11-04T11:47:41.893Z,10.87
2022-11-04T11:50:32.565Z,14.03
2022-11-04T11:53:23.877Z,12.00
2022-11-04T11:56:18.660Z,10.80
2022-11-04T12:02:40.221Z,14.07
2022-11-04T12:11:46.188Z,14.73
2022-11-04T12:15:10.243Z,12.73
2022-11-04T12:18:20.801Z,10.47
2022-11-04T12:21:21.919Z,13.40
2022-11-04T12:24:02.133Z,19.03
2022-11-04T12:27:03.718Z,16.87
2022-11-04T12:30:07.020Z,13.70
2022-11-04T12:33:49.392Z,15.20
2022-11-04T12:36:48.067Z,17.43
2022-11-04T12:40:12.056Z,19.50
2022-11-04T12:43:25.499Z,13.97
2022-11-04T12:46:37.555Z,16.33
2022-11-04T12:50:00.546Z,15.47
2022-11-04T12:53:32.994Z,15.73
2022-11-04T12:56:17.816Z,15.47
2022-11-04T12:59:16.422Z,15.17
2022-11-04T13:02:17.036Z,18.33
2022-11-04T13:05:12.998Z,16.50
2022-11-04T13:08:24.797Z,17.33
2022-11-04T13:11:25.776Z,23.07
2022-11-04T13:14:09.023Z,18.87
2022-11-04T13:16:43.995Z,19.33
2022-11-04T13:19:42.541Z,19.30
2022-11-04T13:22:19.492Z,19.77
2022-11-04T13:24:59.344Z,19.90
2022-11-04T13:27:40.521Z,21.33
2022-11-04T13:30:16.264Z,15.47
2022-11-04T13:33:21.328Z,15.97
2022-11-04T13:36:34.964Z,18.47
2022-11-04T13:39:12.343Z,19.97
2022-11-04T13:42:32.834Z,18.07
2022-11-04T13:45:17.057Z,21.90
2022-11-04T13:47:55.594Z,18.07
2022-11-04T13:50:38.639Z,21.70
2022-11-04T13:53:12.158Z,19.47
2022-11-04T13:55:51.982Z,20.93
2022-11-04T13:58:27.124Z,19.63
2022-11-04T14:01:24.622Z,18.90
2022-11-04T14:04:25.576Z,19.67
2022-11-04T14:07:00.693Z,22.10
2022-11-04T14:09:49.121Z,20.53
2022-11-04T14:12:18.867Z,19.77
2022-11-04T14:14:56.114Z,19.67
2022-11-04T14:17:35.524Z,22.23
2022-11-04T14:20:06.217Z,20.47
2022-11-04T14:22:56.818Z,18.83
2022-11-04T14:25:44.269Z,19.03
2022-11-04T14:28:13.789Z,23.10
2022-11-04T14:30:49.543Z,13.70
2022-11-04T14:33:42.163Z,22.77
2022-11-04T14:36:20.991Z,18.37
2022-11-04T14:39:10.814Z,24.03
2022-11-04T14:41:49.991Z,20.20
2022-11-04T14:44:51.754Z,27.77
2022-11-04T14:47:33.253Z,23.63
2022-11-04T14:50:08.570Z,23.07
2022-11-04T14:52:44.240Z,23.90
2022-11-04T14:55:19.259Z,31.37
2022-11-04T14:57:53.444Z,27.97
2022-11-04T15:00:39.512Z,25.87
2022-11-04T15:06:11.654Z,27.70
2022-11-04T15:08:41.726Z,32.60
2022-11-04T15:11:16.905Z,31.23
2022-11-04T15:13:57.102Z,33.90
2022-11-04T15:16:33.509Z,22.93
2022-11-04T15:19:00.529Z,30.33
2022-11-04T15:21:30.536Z,29.30
2022-11-04T15:24:05.842Z,22.73
2022-11-04T15:26:37.179Z,30.80
2022-11-04T15:29:14.975Z,35.40
2022-11-04T15:32:22.308Z,34.77
2022-11-04T15:35:26.999Z,34.27
2022-11-04T15:38:03.294Z,35.43
2022-11-04T15:40:36.182Z,37.00
2022-11-04T15:43:09.836Z,33.30
2022-11-04T15:45:52.379Z,31.10
2022-11-04T15:48:28.087Z,36.97
2022-11-04T15:51:26.296Z,35.27
2022-11-04T15:54:23.883Z,35.77
2022-11-04T15:57:16.827Z,35.10
2022-11-04T16:00:13.332Z,38.87
2022-11-04T16:03:03.248Z,40.33
2022-11-04T16:05:40.310Z,38.37
2022-11-04T16:08:31.359Z,29.30
2022-11-04T16:11:20.303Z,36.53
2022-11-04T16:13:48.068Z,35.83
2022-11-04T16:16:26.689Z,36.93
2022-11-04T16:19:22.754Z,43.17
2022-11-04T16:22:13.226Z,36.33
2022-11-04T16:24:48.342Z,34.83
2022-11-04T16:27:21.043Z,33.57
2022-11-04T16:30:20.235Z,40.67
2022-11-04T16:33:07.631Z,22.47
2022-11-04T16:35:38.034Z,34.37
2022-11-04T16:38:16.628Z,37.93
2022-11-04T16:41:05.260Z,33.93
2022-11-04T16:46:47.586Z,34.63
2022-11-04T16:49:24.773Z,32.50
2022-11-04T16:52:01.333Z,31.70
2022-11-04T16:54:29.410Z,30.67
2022-11-04T16:57:00.338Z,33.20
2022-11-04T16:59:27.345Z,31.10
2022-11-04T17:01:54.444Z,29.67
2022-11-04T17:04:29.950Z,30.10
2022-11-04T17:07:00.239Z,31.67
2022-11-04T17:09:27.211Z,22.60
2022-11-04T17:11:54.197Z,27.83
2022-11-04T17:14:28.432Z,23.73
2022-11-04T17:16:58.044Z,25.73
2022-11-04T17:19:25.947Z,24.13
2022-11-04T17:21:55.706Z,24.70
2022-11-04T17:24:22.772Z,25.37
2022-11-04T17:26:55.472Z,28.00
2022-11-04T17:29:22.751Z,27.70
2022-11-04T17:31:50.495Z,24.10
2022-11-04T17:34:17.637Z,30.13
2022-11-04T17:36:47.466Z,24.13
2022-11-04T17:39:18.276Z,22.90
2022-11-04T17:42:06.140Z,25.53
2022-11-04T17:44:36.304Z,25.97
2022-11-04T17:47:03.360Z,25.83
2022-11-04T17:49:30.823Z,24.57
2022-11-04T17:52:34.695Z,24.87
2022-11-04T17:55:27.323Z,23.60
2022-11-04T17:57:57.988Z,28.57
2022-11-04T18:00:45.599Z,23.90
2022-11-04T18:03:12.994Z,20.60
2022-11-04T18:05:43.253Z,24.47
2022-11-04T18:09:23.259Z,26.60
2022-11-04T18:12:08.957Z,25.40
2022-11-04T18:14:55.667Z,26.60
2022-11-04T18:17:25.297Z,25.57
2022-11-04T18:23:08.332Z,25.33
2022-11-04T18:25:51.090Z,26.73
2022-11-04T18:28:36.564Z,28.23
2022-11-04T18:31:19.166Z,22.80
2022-11-04T18:37:06.170Z,22.37
2022-11-04T18:39:33.166Z,21.33
2022-11-04T18:42:18.999Z,26.00
2022-11-04T18:44:46.202Z,26.67
2022-11-04T18:47:14.269Z,28.30
2022-11-04T18:49:41.247Z,23.97
2022-11-04T18:52:08.214Z,34.93
2022-11-04T18:54:36.165Z,32.27
2022-11-04T18:57:04.513Z,25.27
2022-11-04T18:59:32.209Z,29.40
2022-11-04T19:01:59.285Z,37.73
2022-11-04T19:04:26.391Z,31.70
2022-11-04T19:06:53.339Z,25.90
2022-11-04T19:09:46.040Z,36.67
2022-11-04T19:13:19.278Z,28.40
2022-11-04T19:16:55.644Z,30.33
2022-11-04T19:20:36.630Z,36.43
2022-11-04T19:23:45.361Z,34.47
2022-11-04T19:26:59.173Z,32.27
2022-11-04T19:29:37.181Z,35.87
2022-11-04T19:32:18.200Z,32.30
2022-11-04T19:34:59.633Z,35.20
2022-11-04T19:37:27.786Z,38.17
2022-11-04T19:43:11.722Z,30.80
2022-11-04T19:46:25.335Z,35.33
2022-11-04T19:49:36.922Z,29.53
2022-11-04T19:52:52.681Z,29.37
2022-11-04T20:06:42.960Z,32.97
2022-11-04T20:17:08.626Z,36.83
2022-11-04T20:18:56.304Z,34.23
2022-11-04T20:20:10.595Z,32.47
2022-11-04T20:23:31.851Z,31.63
2022-11-04T20:26:31.829Z,35.77
2022-11-04T20:29:22.774Z,42.80
2022-11-04T20:32:19.256Z,39.67
2022-11-04T20:35:18.828Z,49.20
2022-11-04T20:38:28.924Z,52.60
2022-11-04T20:48:33.604Z,43.87
2022-11-04T21:08:32.755Z,44.60
2022-11-04T21:09:40.710Z,46.00
2022-11-04T21:12:36.943Z,48.27
2022-11-04T21:18:53.385Z,50.37
2022-11-04T21:32:29.145Z,48.80
2022-11-04T21:36:02.749Z,49.33
2022-11-04T22:46:31.461Z,67.30
2022-11-04T22:52:22.181Z,63.40
2022-11-04T23:08:14.400Z,60.23
2022-11-04T23:11:37.199Z,42.00
2022-11-04T23:14:48.179Z,58.13
2022-11-04T23:17:48.961Z,60.40
2022-11-04T23:20:39.493Z,50.83
2022-11-04T23:26:38.941Z,56.53
2022-11-04T23:39:32.379Z,56.50
2022-11-04T23:42:52.448Z,65.37
2022-11-04T23:46:02.012Z,51.63
2022-11-04T23:53:04.579Z,53.50
2022-11-04T23:56:58.663Z,46.30
